Time;durP1;ratioP1;P1;durP2;ratioP2;P2;SDS_P1;SDS_P2;PMS_P1;PMS_P2;Temp;Humidity;BMP_temperature;BMP_pressure;BME280_temperature;BME280_humidity;BME280_pressure;Samples;Min_cycle;Max_cycle;Signal;HPM_P1;HPM_P2
2023/03/20 00:02:05;;;;;;;;;7.00;7.00;;;;;20.84;51.73;100828.06;109325;1256;19647;-74
2023/03/20 00:04:32;;;;;;;;;4.00;4.00;;;;;20.85;51.66;100824.95;109412;1269;23030;-74
2023/03/20 00:07:00;;;;;;;;;7.00;5.00;;;;;20.85;51.70;100821.48;109355;1269;20182;-74
2023/03/20 00:09:27;;;;;;;;;4.50;4.50;;;;;20.85;51.74;100819.61;109374;1269;19101;-74
2023/03/20 00:11:55;;;;;;;;;7.00;5.00;;;;;20.85;51.56;100818.55;109369;1255;20846;-74
2023/03/20 00:14:23;;;;;;;;;4.00;4.00;;;;;20.84;51.67;100822.65;109418;1269;20191;-74
2023/03/20 00:16:50;;;;;;;;;4.00;4.00;;;;;20.83;51.80;100821.02;109356;1269;20705;-73
2023/03/20 00:19:18;;;;;;;;;4.50;4.00;;;;;20.83;51.83;100822.01;109338;1254;20899;-74
2023/03/20 00:21:46;;;;;;;;;4.00;4.00;;;;;20.83;51.59;100819.48;109348;1269;20351;-74
2023/03/20 00:24:14;;;;;;;;;5.00;4.00;;;;;20.83;51.87;100815.20;109360;1269;19165;-74
2023/03/20 00:26:41;;;;;;;;;5.00;5.00;;;;;20.83;51.75;100823.77;109368;1269;19590;-74
2023/03/20 00:29:09;;;;;;;;;8.00;7.00;;;;;20.84;51.73;100819.25;109381;1269;20192;-76
2023/03/20 00:31:36;;;;;;;;;5.00;5.00;;;;;20.84;51.78;100814.98;109414;1269;22560;-75
2023/03/20 00:34:04;;;;;;;;;5.00;5.00;;;;;20.84;51.48;100814.34;109375;1254;20784;-73
2023/03/20 00:36:31;;;;;;;;;8.00;5.00;;;;;20.83;51.61;100812.20;109372;1254;21626;-73
2023/03/20 00:38:58;;;;;;;;;7.50;7.50;;;;;20.84;51.60;100813.73;109372;1256;19749;-74
2023/03/20 00:41:26;;;;;;;;;7.33;6.67;;;;;20.85;51.49;100811.43;109348;1254;23081;-74
2023/03/20 00:43:53;;;;;;;;;7.00;5.00;;;;;20.86;51.43;100806.33;109383;1269;20078;-74
2023/03/20 00:46:20;;;;;;;;;4.50;4.50;;;;;20.85;51.37;100803.16;109370;1254;19637;-74
2023/03/20 00:48:48;;;;;;;;;5.00;5.00;;;;;20.85;51.45;100798.23;109346;1269;19401;-73
2023/03/20 00:51:15;;;;;;;;;5.00;5.00;;;;;20.85;51.48;100794.98;109352;1264;22923;-74
2023/03/20 00:53:43;;;;;;;;;4.50;4.00;;;;;20.84;51.54;100791.92;109363;1254;19225;-74
2023/03/20 00:56:10;;;;;;;;;7.00;7.00;;;;;20.85;51.34;100790.91;109437;1269;19666;-74
2023/03/20 00:58:37;;;;;;;;;7.00;6.00;;;;;20.84;51.32;100786.15;109441;1254;21560;-74
2023/03/20 01:01:05;;;;;;;;;7.00;5.00;;;;;20.85;51.40;100787.33;109373;1269;19270;-73
2023/03/20 01:03:32;;;;;;;;;5.00;5.00;;;;;20.85;51.47;100783.38;109394;1256;20794;-74
2023/03/20 01:05:59;;;;;;;;;;;;;;;20.85;51.43;100783.01;109354;1269;23651;-74
2023/03/20 01:08:27;;;;;;;;;5.00;5.00;;;;;20.85;51.43;100783.72;109334;1254;19104;-74
2023/03/20 01:10:54;;;;;;;;;5.00;5.00;;;;;20.84;51.18;100781.45;109381;1269;20775;-74
2023/03/20 01:13:21;;;;;;;;;6.00;6.00;;;;;20.84;51.35;100780.40;109349;1269;22478;-74
2023/03/20 01:15:49;;;;;;;;;;;;;;;20.84;51.37;100776.95;109345;1269;23144;-73
2023/03/20 01:18:16;;;;;;;;;6.00;6.00;;;;;20.83;51.32;100776.99;109320;1253;21357;-74
2023/03/20 01:20:44;;;;;;;;;5.00;5.00;;;;;20.85;51.24;100773.88;109383;1269;20256;-74
2023/03/20 01:23:12;;;;;;;;;5.00;4.50;;;;;20.84;51.41;100768.37;109375;1256;19675;-74
2023/03/20 01:25:39;;;;;;;;;7.00;7.00;;;;;20.84;51.30;100764.55;109398;1262;20798;-74
2023/03/20 01:28:06;;;;;;;;;7.00;7.00;;;;;20.84;51.29;100762.34;109444;1269;20163;-74
2023/03/20 01:30:34;;;;;;;;;7.00;5.00;;;;;20.83;51.34;100764.67;109393;1254;23479;-74
2023/03/20 01:33:01;;;;;;;;;7.00;7.00;;;;;20.83;51.51;100762.69;109377;1255;20855;-75
2023/03/20 01:35:29;;;;;;;;;6.50;6.50;;;;;20.83;51.46;100765.75;109394;1262;21639;-75
2023/03/20 01:37:56;;;;;;;;;7.00;7.00;;;;;20.83;51.31;100760.47;109423;1254;23606;-77
2023/03/20 01:40:24;;;;;;;;;7.00;7.00;;;;;20.84;51.38;100761.32;109447;1269;19579;-74
2023/03/20 01:42:52;;;;;;;;;8.00;7.00;;;;;20.84;51.39;100758.94;109418;1254;21615;-74
2023/03/20 01:45:20;;;;;;;;;8.00;7.00;;;;;20.84;51.36;100759.31;109377;1269;19210;-75
2023/03/20 01:47:47;;;;;;;;;8.00;7.00;;;;;20.84;51.45;100756.77;109376;1269;21989;-76
2023/03/20 01:50:15;;;;;;;;;4.00;4.00;;;;;20.84;51.39;100758.05;109373;1254;21609;-73
2023/03/20 01:52:42;;;;;;;;;10.00;7.00;;;;;20.83;51.22;100756.20;109358;1254;23546;-73
2023/03/20 01:55:10;;;;;;;;;5.00;5.00;;;;;20.83;51.24;100755.37;109359;1269;22345;-73
2023/03/20 01:57:37;;;;;;;;;8.50;8.00;;;;;20.84;51.23;100753.15;109379;1256;23383;-73
2023/03/20 02:00:04;;;;;;;;;7.00;7.00;;;;;20.83;51.43;100758.64;109408;1269;20524;-73
2023/03/20 02:02:32;;;;;;;;;8.00;7.33;;;;;20.82;51.40;100754.59;109364;1269;19732;-73
2023/03/20 02:04:59;;;;;;;;;7.00;7.00;;;;;20.82;51.32;100754.39;109417;1269;20321;-73
2023/03/20 02:07:27;;;;;;;;;5.00;5.00;;;;;20.82;51.38;100754.42;109416;1269;21284;-73
2023/03/20 02:09:54;;;;;;;;;5.00;5.00;;;;;20.83;51.16;100752.88;109451;1256;21983;-73
2023/03/20 02:12:21;;;;;;;;;7.50;7.00;;;;;20.82;51.30;100748.77;109346;1254;22806;-73
2023/03/20 02:14:49;;;;;;;;;6.00;6.00;;;;;20.81;51.26;100744.89;109352;1254;19755;-73
2023/03/20 02:17:16;;;;;;;;;7.00;7.00;;;;;20.82;51.21;100745.54;109347;1269;19387;-73
2023/03/20 02:19:43;;;;;;;;;5.00;5.00;;;;;20.81;51.27;100745.27;109334;1269;20222;-73
2023/03/20 02:22:11;;;;;;;;;8.00;7.00;;;;;20.82;51.44;100744.10;109372;1254;19145;-73
2023/03/20 02:24:38;;;;;;;;;7.50;6.50;;;;;20.82;51.11;100744.67;109370;1269;21554;-75
2023/03/20 02:27:05;;;;;;;;;7.00;5.00;;;;;20.82;51.22;100747.54;109390;1256;21665;-73
2023/03/20 02:29:33;;;;;;;;;7.00;6.00;;;;;20.82;51.11;100746.49;109376;1254;23187;-74
2023/03/20 02:32:00;;;;;;;;;8.00;5.00;;;;;20.82;51.28;100748.67;109310;1269;19933;-74
2023/03/20 02:34:28;;;;;;;;;7.00;7.00;;;;;20.82;51.19;100747.58;109334;1269;23156;-73
2023/03/20 02:36:55;;;;;;;;;7.00;6.00;;;;;20.81;51.33;100744.88;109358;1254;22323;-73
2023/03/20 02:39:23;;;;;;;;;8.00;8.00;;;;;20.81;51.35;100742.94;109347;1254;22307;-73
2023/03/20 02:41:50;;;;;;;;;7.00;5.00;;;;;20.80;51.29;100745.48;109373;1256;23180;-73
2023/03/20 02:44:17;;;;;;;;;5.00;5.00;;;;;20.80;51.34;100739.91;109358;1269;19250;-73
2023/03/20 02:46:45;;;;;;;;;8.00;6.00;;;;;20.81;51.31;100739.64;109386;1269;19444;-74
2023/03/20 02:49:12;;;;;;;;;8.00;5.00;;;;;20.80;51.13;100740.48;109368;1269;20525;-73
2023/03/20 02:51:39;;;;;;;;;5.00;5.00;;;;;20.80;51.13;100739.52;109392;1264;19201;-74
2023/03/20 02:54:07;;;;;;;;;8.00;7.00;;;;;20.80;51.17;100735.08;109390;1269;20751;-74
2023/03/20 02:56:34;;;;;;;;;7.50;4.50;;;;;20.80;51.22;100740.07;109366;1269;20174;-73
2023/03/20 02:59:01;;;;;;;;;10.00;9.00;;;;;20.80;51.14;100741.41;109363;1269;19242;-74
2023/03/20 03:01:29;;;;;;;;;5.00;5.00;;;;;20.80;51.36;100735.92;109367;1254;23118;-73
2023/03/20 03:03:56;;;;;;;;;;;;;;;20.79;51.27;100732.42;109443;1256;23010;-74
2023/03/20 03:06:23;;;;;;;;;7.00;4.00;;;;;20.79;51.26;100739.47;109451;1269;20171;-74
2023/03/20 03:08:51;;;;;;;;;5.00;5.00;;;;;20.80;51.32;100739.77;109426;1269;19403;-74
2023/03/20 03:11:18;;;;;;;;;7.67;7.00;;;;;20.79;51.22;100737.30;109420;1269;22246;-74
2023/03/20 03:13:46;;;;;;;;;5.00;5.00;;;;;20.79;51.35;100727.11;109440;1256;19835;-74
2023/03/20 03:16:13;;;;;;;;;4.00;4.00;;;;;20.79;51.11;100724.96;109423;1269;20979;-73
2023/03/20 03:18:40;;;;;;;;;7.00;7.00;;;;;20.79;51.24;100727.83;109461;1256;21762;-74
2023/03/20 03:21:08;;;;;;;;;7.00;5.00;;;;;20.79;51.26;100728.61;109455;1256;19707;-74
2023/03/20 03:23:36;;;;;;;;;5.00;5.00;;;;;20.79;51.37;100726.27;109438;1263;20819;-74
2023/03/20 03:26:03;;;;;;;;;7.00;5.00;;;;;20.78;51.19;100727.77;109396;1254;21599;-74
2023/03/20 03:28:35;;;;;;;;;7.00;5.00;;;;;20.78;51.48;100726.64;109351;1269;19297;-74
2023/03/20 03:31:03;;;;;;;;;7.00;5.00;;;;;20.78;51.31;100727.27;109361;1254;20832;-74
2023/03/20 03:33:30;;;;;;;;;8.00;7.00;;;;;20.78;51.22;100728.30;109334;1254;21638;-73
2023/03/20 03:35:57;;;;;;;;;5.00;5.00;;;;;20.79;51.37;100727.73;109404;1256;19751;-74
2023/03/20 03:38:25;;;;;;;;;7.00;7.00;;;;;20.78;51.31;100725.77;109348;1255;23619;-74
2023/03/20 03:40:52;;;;;;;;;5.00;4.67;;;;;20.78;51.16;100731.29;109330;1256;23133;-74
2023/03/20 03:43:20;;;;;;;;;5.00;5.00;;;;;20.78;51.39;100733.05;109344;1256;23189;-74
2023/03/20 03:45:47;;;;;;;;;;;;;;;20.77;51.27;100728.25;109329;1254;19541;-76
2023/03/20 03:48:14;;;;;;;;;4.00;4.00;;;;;20.77;51.27;100733.15;109325;1269;21515;-73
2023/03/20 03:50:46;;;;;;;;;4.00;4.00;;;;;20.78;51.32;100734.00;109341;1269;20510;-74
2023/03/20 03:53:14;;;;;;;;;7.00;5.00;;;;;20.77;51.16;100733.52;109360;1269;21565;-74
2023/03/20 03:55:41;;;;;;;;;;;;;;;20.77;51.27;100732.04;109363;1269;20221;-74
2023/03/20 03:58:09;;;;;;;;;5.00;4.50;;;;;20.78;51.08;100725.12;109369;1269;20364;-74
2023/03/20 04:00:36;;;;;;;;;6.50;5.00;;;;;20.78;51.21;100723.65;109366;1256;20806;-74
2023/03/20 04:03:03;;;;;;;;;5.00;5.00;;;;;20.77;51.21;100721.38;109317;1269;20246;-73
2023/03/20 04:05:31;;;;;;;;;5.00;5.00;;;;;20.78;51.05;100715.14;109336;1254;21512;-74
2023/03/20 04:07:59;;;;;;;;;7.00;7.00;;;;;20.77;51.25;100715.94;109336;1269;19392;-74
2023/03/20 04:10:26;;;;;;;;;4.00;4.00;;;;;20.77;51.14;100712.36;109343;1254;23599;-74
2023/03/20 04:12:54;;;;;;;;;5.00;5.00;;;;;20.76;51.42;100713.00;109332;1264;23239;-74
2023/03/20 04:15:21;;;;;;;;;6.00;5.50;;;;;20.76;51.10;100715.36;109337;1256;20887;-74
2023/03/20 04:17:48;;;;;;;;;6.67;6.67;;;;;20.76;51.24;100716.08;109386;1269;20383;-75
2023/03/20 04:20:16;;;;;;;;;5.00;4.00;;;;;20.76;51.16;100718.21;109360;1254;23181;-75
2023/03/20 04:22:43;;;;;;;;;7.00;6.50;;;;;20.77;51.26;100719.09;109380;1254;23540;-74
2023/03/20 04:25:10;;;;;;;;;4.00;4.00;;;;;20.76;50.98;100715.88;109412;1269;20076;-74
2023/03/20 04:27:38;;;;;;;;;8.50;7.00;;;;;20.75;51.03;100714.33;109360;1256;19717;-73
2023/03/20 04:30:05;;;;;;;;;5.50;5.00;;;;;20.75;51.17;100713.41;109353;1254;20904;-74
2023/03/20 04:32:33;;;;;;;;;5.00;5.00;;;;;20.76;51.18;100711.92;109353;1256;23318;-74
2023/03/20 04:35:00;;;;;;;;;5.00;5.00;;;;;20.74;50.94;100710.62;109393;1269;23045;-75
2023/03/20 04:37:28;;;;;;;;;7.00;5.00;;;;;20.75;51.25;100715.60;109358;1256;23488;-74
2023/03/20 04:39:56;;;;;;;;;4.50;4.50;;;;;20.75;51.15;100715.09;109350;1254;23500;-75
2023/03/20 04:42:23;;;;;;;;;7.00;7.00;;;;;20.75;51.10;100714.33;109367;1269;23704;-75
2023/03/20 04:44:50;;;;;;;;;5.00;5.00;;;;;20.76;51.25;100718.67;109379;1256;20865;-75
2023/03/20 04:47:18;;;;;;;;;7.00;7.00;;;;;20.75;51.09;100718.21;109360;1269;20262;-75
2023/03/20 04:49:45;;;;;;;;;6.00;5.00;;;;;20.75;51.02;100717.05;109357;1256;22949;-75
2023/03/20 04:52:12;;;;;;;;;5.00;5.00;;;;;20.75;51.27;100717.77;109353;1254;20759;-75
2023/03/20 04:54:40;;;;;;;;;7.00;6.00;;;;;20.74;51.15;100719.67;109374;1254;21960;-73
2023/03/20 04:57:07;;;;;;;;;5.33;5.00;;;;;20.74;51.19;100718.41;109331;1254;22799;-73
2023/03/20 04:59:34;;;;;;;;;5.50;5.50;;;;;20.75;51.17;100718.97;109409;1269;20911;-74
2023/03/20 05:02:02;;;;;;;;;7.00;5.50;;;;;20.74;51.06;100716.52;109400;1264;20227;-74
2023/03/20 05:04:29;;;;;;;;;7.00;5.00;;;;;20.74;51.10;100717.40;109433;1254;23579;-74
2023/03/20 05:06:56;;;;;;;;;6.50;6.50;;;;;20.73;51.15;100714.72;109473;1269;19382;-74
2023/03/20 05:09:24;;;;;;;;;5.00;5.00;;;;;20.74;51.10;100718.70;109422;1254;22996;-74
2023/03/20 05:11:51;;;;;;;;;4.50;4.50;;;;;20.75;51.14;100717.09;109386;1256;19673;-74
2023/03/20 05:14:18;;;;;;;;;4.00;4.00;;;;;20.73;51.03;100714.38;109439;1264;19443;-74
2023/03/20 05:16:46;;;;;;;;;7.00;7.00;;;;;20.74;51.04;100719.92;109401;1269;21597;-74
2023/03/20 05:19:13;;;;;;;;;7.00;5.00;;;;;20.73;51.03;100725.05;109349;1256;23021;-74
2023/03/20 05:34:28;;;;;;;;;7.00;7.00;;;;;20.73;51.17;100722.65;109298;1269;20206;-75
2023/03/20 05:36:56;;;;;;;;;7.00;6.00;;;;;20.73;50.88;100725.52;109248;1269;19163;-75
2023/03/20 05:39:23;;;;;;;;;5.00;4.00;;;;;20.72;51.22;100724.70;109312;1254;22013;-73
2023/03/20 05:41:50;;;;;;;;;5.00;5.00;;;;;20.73;51.08;100729.48;109330;1256;21591;-74
2023/03/20 05:44:17;;;;;;;;;7.00;7.00;;;;;20.73;51.23;100722.41;109286;1254;19641;-73
2023/03/20 05:46:45;;;;;;;;;8.00;7.00;;;;;20.73;51.24;100727.11;109293;1254;22959;-72
2023/03/20 05:49:12;;;;;;;;;7.50;7.50;;;;;20.75;51.44;100724.86;109309;1256;21732;-74
2023/03/20 05:51:39;;;;;;;;;5.00;5.00;;;;;20.76;51.20;100727.52;109362;1269;19249;-73
2023/03/20 05:54:07;;;;;;;;;5.00;5.00;;;;;20.78;51.44;100733.60;109261;1269;19707;-73
2023/03/20 05:56:34;;;;;;;;;5.00;5.00;;;;;20.79;51.58;100734.40;109308;1269;20189;-74
2023/03/20 05:59:02;;;;;;;;;7.00;7.00;;;;;20.81;52.08;100735.08;109287;1269;23017;-75
2023/03/20 06:01:30;;;;;;;;;27.50;27.50;;;;;20.83;52.53;100734.73;109253;1256;20784;-73
2023/03/20 06:03:57;;;;;;;;;23.00;23.00;;;;;20.88;52.60;100735.02;109296;1254;21592;-74
2023/03/20 06:06:24;;;;;;;;;20.50;20.50;;;;;20.92;52.82;100730.39;109280;1269;21043;-74
2023/03/20 06:08:52;;;;;;;;;21.00;20.00;;;;;20.94;53.66;100732.29;109267;1269;19428;-75
2023/03/20 06:11:20;;;;;;;;;14.00;13.00;;;;;20.97;54.86;100732.85;109309;1264;21518;-75
2023/03/20 06:13:48;;;;;;;;;10.50;10.00;;;;;20.97;54.92;100732.50;109334;1254;20226;-74
2023/03/20 06:16:15;;;;;;;;;10.50;10.50;;;;;20.97;54.64;100737.71;109324;1269;19595;-74
2023/03/20 06:18:43;;;;;;;;;10.00;8.00;;;;;20.97;54.59;100741.40;109320;1269;21542;-73
2023/03/20 06:21:11;;;;;;;;;10.00;10.00;;;;;20.96;54.34;100742.93;109333;1254;23474;-75
2023/03/20 06:23:39;;;;;;;;;8.00;8.00;;;;;20.93;54.58;100744.22;109293;1269;19449;-73
2023/03/20 06:26:07;;;;;;;;;13.00;11.00;;;;;20.91;54.55;100744.88;109252;1254;20146;-73
2023/03/20 06:28:34;;;;;;;;;25.50;24.00;;;;;20.89;54.26;100750.88;109236;1254;23088;-72
2023/03/20 06:31:02;;;;;;;;;35.00;29.00;;;;;20.85;53.94;100753.34;109302;1254;23931;-73
2023/03/20 06:33:29;;;;;;;;;24.00;22.00;;;;;20.81;53.16;100757.77;109263;1264;20143;-72
2023/03/20 06:35:56;;;;;;;;;33.50;31.50;;;;;20.77;52.33;100758.77;109336;1269;19987;-73
2023/03/20 06:38:24;;;;;;;;;38.00;35.00;;;;;20.76;51.75;100765.44;109262;1269;20861;-73
2023/03/20 06:40:51;;;;;;;;;41.00;38.00;;;;;20.74;51.20;100763.56;109272;1269;20509;-72
2023/03/20 06:43:18;;;;;;;;;55.00;46.50;;;;;20.68;49.91;100762.04;109292;1263;19951;-74
2023/03/20 06:45:47;;;;;;;;;54.00;44.00;;;;;20.60;49.41;100760.30;109270;1263;20822;-75
2023/03/20 06:48:15;;;;;;;;;40.00;38.00;;;;;20.61;48.81;100759.86;109260;1269;23052;-74
2023/03/20 06:50:42;;;;;;;;;34.00;32.00;;;;;20.66;48.81;100760.05;109272;1254;24235;-73
2023/03/20 06:53:10;;;;;;;;;35.00;32.00;;;;;20.70;48.87;100759.40;109286;1254;23148;-75
2023/03/20 06:55:37;;;;;;;;;33.00;29.50;;;;;20.75;48.94;100763.15;109291;1256;21418;-74
2023/03/20 06:58:04;;;;;;;;;31.00;25.33;;;;;20.79;49.19;100765.70;109322;1269;19283;-73
2023/03/20 07:00:33;;;;;;;;;31.00;28.00;;;;;20.80;49.28;100760.81;109282;1256;23080;-70
2023/03/20 07:03:01;;;;;;;;;28.00;27.00;;;;;20.79;49.57;100765.13;109262;1254;23942;-70
2023/03/20 07:05:28;;;;;;;;;37.00;35.00;;;;;20.74;49.54;100761.36;109252;1263;21567;-69
2023/03/20 07:07:55;;;;;;;;;32.50;32.00;;;;;20.66;49.03;100759.52;109319;1254;22200;-69
2023/03/20 07:10:23;;;;;;;;;42.00;37.00;;;;;20.63;48.26;100758.23;109280;1269;20193;-70
2023/03/20 07:12:50;;;;;;;;;48.00;43.50;;;;;20.63;47.39;100760.30;109277;1256;23029;-70
2023/03/20 07:15:18;;;;;;;;;46.00;43.00;;;;;20.61;47.02;100766.07;109317;1254;20933;-70
2023/03/20 07:17:46;;;;;;;;;38.00;36.50;;;;;20.57;46.30;100760.39;109290;1256;22714;-70
2023/03/20 07:20:13;;;;;;;;;47.00;38.00;;;;;20.53;46.07;100763.36;109308;1254;20040;-73
2023/03/20 07:22:41;;;;;;;;;31.00;29.00;;;;;20.50;45.62;100766.78;109317;1269;19413;-73
2023/03/20 07:25:08;;;;;;;;;36.00;31.50;;;;;20.51;45.64;100763.95;109290;1254;21592;-74
2023/03/20 07:27:36;;;;;;;;;34.00;30.00;;;;;20.57;45.85;100768.36;109339;1269;20023;-74
2023/03/20 07:30:03;;;;;;;;;30.50;27.50;;;;;20.62;46.29;100767.67;109326;1264;23531;-73
2023/03/20 07:32:31;;;;;;;;;26.00;25.00;;;;;20.66;46.72;100769.11;109295;1254;23379;-78
2023/03/20 07:34:58;;;;;;;;;29.00;25.00;;;;;20.68;46.60;100768.70;109287;1269;23488;-74
2023/03/20 07:37:25;;;;;;;;;22.00;20.00;;;;;20.72;46.90;100770.11;109289;1254;21028;-74
2023/03/20 07:39:53;;;;;;;;;16.00;16.00;;;;;20.73;47.32;100770.66;109314;1254;21608;-73
2023/03/20 07:42:20;;;;;;;;;19.00;19.00;;;;;20.76;47.36;100773.81;109289;1269;23271;-76
2023/03/20 07:44:47;;;;;;;;;18.50;17.00;;;;;20.78;47.84;100777.42;109280;1269;21844;-73
2023/03/20 07:47:15;;;;;;;;;17.00;16.00;;;;;20.80;47.82;100775.36;109309;1269;20159;-73
2023/03/20 07:49:42;;;;;;;;;17.00;17.00;;;;;20.80;48.10;100777.50;109291;1269;19930;-73
2023/03/20 07:52:10;;;;;;;;;15.00;13.50;;;;;20.81;48.47;100777.96;109274;1254;21047;-74
2023/03/20 07:54:37;;;;;;;;;14.50;13.00;;;;;20.79;48.57;100779.92;109235;1270;20754;-73
2023/03/20 07:57:04;;;;;;;;;14.00;12.00;;;;;20.79;48.82;100782.81;109296;1263;20001;-74
2023/03/20 07:59:32;;;;;;;;;14.00;13.00;;;;;20.81;48.95;100780.37;109255;1269;22097;-72
2023/03/20 08:01:59;;;;;;;;;16.00;14.00;;;;;20.78;49.28;100779.52;109282;1254;21695;-72
2023/03/20 08:04:26;;;;;;;;;16.00;16.00;;;;;20.79;49.22;100781.80;109326;1254;20101;-73
2023/03/20 08:06:54;;;;;;;;;22.00;16.00;;;;;20.79;49.50;100779.23;109309;1254;20826;-73
2023/03/20 08:09:21;;;;;;;;;14.00;11.00;;;;;20.81;49.53;100779.98;109300;1269;20290;-73
2023/03/20 08:11:49;;;;;;;;;12.00;11.00;;;;;20.81;49.53;100783.98;109320;1269;20489;-74
2023/03/20 08:14:16;;;;;;;;;12.00;11.00;;;;;20.82;49.66;100787.70;109331;1254;20902;-73
2023/03/20 08:16:45;;;;;;;;;10.00;10.00;;;;;20.81;49.96;100786.63;109254;1269;20975;-73
2023/03/20 08:19:12;;;;;;;;;10.00;9.00;;;;;20.81;50.06;100788.33;109292;1263;20163;-74
2023/03/20 08:21:40;;;;;;;;;10.50;7.50;;;;;20.79;50.18;100791.05;109379;1269;22250;-74
2023/03/20 08:24:07;;;;;;;;;11.00;10.00;;;;;20.80;50.44;100795.67;109332;1269;20145;-74
2023/03/20 08:26:35;;;;;;;;;11.00;10.00;;;;;20.82;50.31;100794.16;109188;1254;154352;-75
2023/03/20 08:29:02;;;;;;;;;10.00;10.00;;;;;20.83;50.40;100796.13;109343;1254;22177;-74
2023/03/20 08:31:30;;;;;;;;;10.50;10.50;;;;;20.84;50.49;100791.42;109391;1254;21509;-77
2023/03/20 08:33:57;;;;;;;;;18.00;14.00;;;;;20.83;50.39;100793.84;109312;1256;20081;-76
2023/03/20 08:36:25;;;;;;;;;10.00;10.00;;;;;20.84;50.42;100792.71;109315;1269;19379;-78
2023/03/20 08:38:53;;;;;;;;;26.00;25.00;;;;;20.83;50.36;100790.89;109269;1269;21330;-74
2023/03/20 08:41:20;;;;;;;;;32.00;28.00;;;;;20.74;50.02;100787.48;109310;1263;22537;-75
2023/03/20 08:43:47;;;;;;;;;25.00;23.00;;;;;20.75;50.37;100787.91;109289;1269;23166;-77
2023/03/20 08:46:15;;;;;;;;;20.00;19.00;;;;;20.76;50.54;100794.27;109295;1254;21718;-76
2023/03/20 08:48:42;;;;;;;;;23.00;22.00;;;;;20.78;51.11;100791.52;109303;1269;19727;-76
2023/03/20 08:51:10;;;;;;;;;20.00;19.00;;;;;20.77;50.75;100789.48;109265;1254;20955;-77
2023/03/20 08:53:37;;;;;;;;;19.00;18.00;;;;;20.76;50.86;100791.45;109276;1254;24241;-78
2023/03/20 08:56:05;;;;;;;;;23.00;22.00;;;;;20.74;50.79;100792.38;109279;1254;20135;-78
2023/03/20 08:58:32;;;;;;;;;23.00;19.00;;;;;20.73;50.98;100792.44;109251;1256;20954;-76
2023/03/20 09:01:01;;;;;;;;;29.00;28.00;;;;;20.71;50.61;100792.73;109259;1254;22687;-73
2023/03/20 09:03:29;;;;;;;;;22.50;21.50;;;;;20.70;50.45;100788.68;109310;1254;23029;-73
2023/03/20 09:05:56;;;;;;;;;35.00;29.67;;;;;20.69;50.64;100792.80;109267;1256;20845;-80
2023/03/20 09:08:23;;;;;;;;;173.50;136.00;;;;;20.74;50.62;100795.30;109295;1254;22745;-73
2023/03/20 09:10:51;;;;;;;;;162.00;120.50;;;;;20.77;50.87;100796.73;109268;1254;21679;-73
2023/03/20 09:13:18;;;;;;;;;102.00;77.00;;;;;20.79;50.64;100800.08;109308;1269;20927;-73
2023/03/20 09:15:45;;;;;;;;;112.00;81.00;;;;;20.82;50.91;100803.11;109271;1269;20204;-75
2023/03/20 09:18:13;;;;;;;;;88.00;63.00;;;;;20.80;51.02;100806.20;109272;1269;23138;-76
2023/03/20 09:20:40;;;;;;;;;86.33;65.00;;;;;20.79;50.87;100804.14;109303;1269;23030;-76
2023/03/20 09:23:08;;;;;;;;;72.50;57.50;;;;;20.76;50.50;100800.55;109288;1254;22654;-74
2023/03/20 09:25:35;;;;;;;;;72.00;56.50;;;;;20.75;50.16;100803.16;109300;1269;20306;-73
2023/03/20 09:28:02;;;;;;;;;66.00;49.00;;;;;20.74;50.07;100798.91;109303;1254;20838;-77
2023/03/20 09:30:30;;;;;;;;;64.50;52.00;;;;;20.74;50.28;100793.33;109305;1255;21998;-77
2023/03/20 09:32:57;;;;;;;;;46.50;41.00;;;;;20.72;50.05;100790.65;109272;1269;20118;-78
2023/03/20 09:35:24;;;;;;;;;53.00;46.00;;;;;20.70;50.20;100785.02;109331;1265;19513;-76
2023/03/20 09:37:53;;;;;;;;;53.50;44.50;;;;;20.69;50.28;100790.20;109318;1269;20175;-75
2023/03/20 09:40:20;;;;;;;;;44.50;40.00;;;;;20.69;50.38;100784.80;109323;1254;20398;-77
2023/03/20 09:42:47;;;;;;;;;43.67;39.00;;;;;20.68;50.29;100786.87;109321;1254;20898;-78
2023/03/20 09:45:15;;;;;;;;;43.00;39.50;;;;;20.69;50.55;100783.36;109309;1264;21085;-76
2023/03/20 09:47:42;;;;;;;;;47.00;37.50;;;;;20.68;50.33;100778.23;109304;1254;23200;-78
2023/03/20 09:50:10;;;;;;;;;43.50;39.00;;;;;20.64;50.04;100781.36;109299;1269;23004;-80
2023/03/20 09:52:37;;;;;;;;;35.00;32.00;;;;;20.64;50.07;100776.14;109277;1269;23662;-79
2023/03/20 09:55:05;;;;;;;;;35.50;29.00;;;;;20.62;50.12;100776.67;109305;1269;19512;-79
2023/03/20 09:57:32;;;;;;;;;41.00;34.00;;;;;20.61;50.55;100779.42;109276;1264;23395;-80
2023/03/20 09:59:59;;;;;;;;;35.00;32.00;;;;;20.57;50.56;100778.60;109312;1269;20211;-79
2023/03/20 10:02:27;;;;;;;;;29.67;28.67;;;;;20.55;50.86;100778.44;109272;1263;22740;-79
2023/03/20 10:04:54;;;;;;;;;32.00;30.00;;;;;20.52;50.70;100772.40;109280;1256;19500;-82
2023/03/20 10:07:21;;;;;;;;;34.00;26.00;;;;;20.50;50.65;100773.06;109316;1255;21600;-75
2023/03/20 10:09:49;;;;;;;;;31.00;29.50;;;;;20.51;50.50;100770.62;109289;1255;19274;-79
2023/03/20 10:12:17;;;;;;;;;33.00;30.50;;;;;20.51;50.62;100765.61;109313;1254;23455;-79
2023/03/20 10:14:44;;;;;;;;;37.00;27.67;;;;;20.52;50.33;100762.25;109306;1254;22002;-79
2023/03/20 10:17:11;;;;;;;;;36.00;30.50;;;;;20.53;50.38;100754.46;109281;1256;20045;-80
2023/03/20 10:19:39;;;;;;;;;31.00;28.00;;;;;20.54;50.38;100748.33;109334;1254;20946;-78
2023/03/20 10:22:07;;;;;;;;;31.50;27.00;;;;;20.55;50.23;100746.98;109310;1254;21642;-78
2023/03/20 10:24:34;;;;;;;;;;;;;;;20.54;49.93;100745.50;109334;1254;19402;-79
2023/03/20 10:27:01;;;;;;;;;27.00;25.50;;;;;20.53;50.25;100749.52;109360;1253;20357;-80
2023/03/20 10:29:29;;;;;;;;;25.50;23.00;;;;;20.53;50.15;100757.86;109329;1269;21528;-82
2023/03/20 10:31:56;;;;;;;;;35.00;32.00;;;;;20.51;50.34;100764.63;109310;1263;20410;-81
2023/03/20 10:34:24;;;;;;;;;31.00;27.00;;;;;20.50;50.04;100766.81;109304;1269;22221;-80
2023/03/20 10:36:51;;;;;;;;;30.67;25.33;;;;;20.48;50.23;100765.52;109287;1267;21475;-80
2023/03/20 10:39:18;;;;;;;;;29.00;27.00;;;;;20.46;50.33;100764.48;109311;1269;19262;-80
2023/03/20 10:41:46;;;;;;;;;25.00;23.00;;;;;20.45;50.31;100766.40;109278;1256;22351;-80
2023/03/20 10:44:13;;;;;;;;;29.00;23.00;;;;;20.44;50.17;100764.89;109269;1269;21618;-80
2023/03/20 10:46:40;;;;;;;;;25.50;22.50;;;;;20.42;50.17;100762.66;109305;1254;20986;-80
2023/03/20 10:49:08;;;;;;;;;32.00;29.00;;;;;20.40;50.39;100763.35;109297;1269;19563;-80
2023/03/20 10:51:35;;;;;;;;;20.00;20.00;;;;;20.39;50.24;100762.04;109260;1269;21550;-81
2023/03/20 10:54:02;;;;;;;;;25.50;25.00;;;;;20.37;50.46;100768.76;109254;1256;20084;-77
2023/03/20 10:56:30;;;;;;;;;25.00;24.00;;;;;20.36;50.52;100764.41;109286;1269;19504;-81
2023/03/20 10:58:57;;;;;;;;;31.00;26.00;;;;;20.35;50.36;100768.30;109297;1256;21544;-83
2023/03/20 11:01:24;;;;;;;;;32.00;31.00;;;;;20.33;50.28;100765.97;109287;1256;20085;-81
2023/03/20 11:03:52;;;;;;;;;34.67;31.00;;;;;20.32;50.34;100766.45;109315;1254;22549;-79
2023/03/20 11:06:20;;;;;;;;;22.00;20.00;;;;;20.32;50.40;100764.89;109312;1254;22358;-81
2023/03/20 11:08:47;;;;;;;;;27.50;25.00;;;;;20.30;50.52;100762.52;109273;1256;23662;-74
2023/03/20 11:11:15;;;;;;;;;23.00;22.00;;;;;20.32;50.31;100756.73;109267;1254;23107;-73
2023/03/20 11:13:42;;;;;;;;;23.00;22.00;;;;;20.35;50.05;100755.39;109280;1269;20192;-75
2023/03/20 11:16:10;;;;;;;;;26.00;25.00;;;;;20.39;50.22;100758.95;109284;1254;20438;-74
2023/03/20 11:18:37;;;;;;;;;;;;;;;20.44;50.15;100760.57;109308;1269;19518;-74
2023/03/20 11:21:05;;;;;;;;;19.00;19.00;;;;;20.46;50.20;100758.87;109333;1253;21611;-74
2023/03/20 11:23:32;;;;;;;;;18.00;16.00;;;;;20.48;50.11;100755.23;109298;1254;19940;-74
2023/03/20 11:25:59;;;;;;;;;19.00;19.00;;;;;20.52;50.01;100756.02;109272;1264;19585;-74